Time,TemperatureF,DewpointF,PressureIn,WindDirection,WindDirectionDegrees,WindSpeedMPH,WindSpeedGustMPH,Humidity,HourlyPrecipIn,Conditions,Clouds,dailyrainin,SoftwareType,DateUTC
2013-05-19 00:00:00,73.3,66.0,29.99,North,-999,0.0,0.0,78,0.00,,,-99.99,WeatherLink 5.7,2013-05-19 04:00:00,
2013-05-19 00:15:00,73.2,65.9,29.99,North,-999,0.0,0.0,78,0.00,,,-99.99,WeatherLink 5.7,2013-05-19 04:15:00,
2013-05-19 00:30:00,72.9,66.0,29.98,North,-999,0.0,0.0,79,0.00,,,-99.99,WeatherLink 5.7,2013-05-19 04:30:00,
2013-05-19 00:45:00,72.8,65.9,29.98,North,-999,0.0,0.0,79,0.00,,,-99.99,WeatherLink 5.7,2013-05-19 04:45:00,
2013-05-19 01:00:00,72.6,65.7,29.97,North,-999,0.0,0.0,79,0.00,,,-99.99,WeatherLink 5.7,2013-05-19 05:00:00,
2013-05-19 01:15:00,72.3,65.8,29.97,North,-999,0.0,0.0,80,0.00,,,-99.99,WeatherLink 5.7,2013-05-19 05:15:00,
2013-05-19 01:30:00,72.0,65.5,29.96,North,-999,0.0,0.0,80,0.00,,,-99.99,WeatherLink 5.7,2013-05-19 05:30:00,
2013-05-19 01:45:00,71.6,65.5,29.96,North,-999,0.0,0.0,81,0.00,,,-99.99,WeatherLink 5.7,2013-05-19 05:45:00,
2013-05-19 02:00:00,71.3,65.2,29.96,North,-999,0.0,0.0,81,0.00,,,-99.99,WeatherLink 5.7,2013-05-19 06:00:00,
2013-05-19 02:15:00,71.0,65.2,29.95,North,-999,0.0,0.0,82,0.00,,,-99.99,WeatherLink 5.7,2013-05-19 06:15:00,
2013-05-19 02:30:00,70.9,65.1,29.95,North,-999,0.0,0.0,82,0.00,,,-99.99,WeatherLink 5.7,2013-05-19 06:30:00,
2013-05-19 02:45:00,70.8,65.4,29.94,North,-999,0.0,0.0,83,0.00,,,-99.99,WeatherLink 5.7,2013-05-19 06:45:00,
2013-05-19 03:00:00,70.8,65.4,29.94,North,-999,0.0,0.0,83,0.00,,,-99.99,WeatherLink 5.7,2013-05-19 07:00:00,
2013-05-19 03:15:00,70.5,65.1,29.94,North,-999,0.0,0.0,83,0.00,,,-99.99,WeatherLink 5.7,2013-05-19 07:15:00,
2013-05-19 03:30:00,70.3,65.2,29.94,North,-999,0.0,0.0,84,0.00,,,-99.99,WeatherLink 5.7,2013-05-19 07:30:00,
2013-05-19 03:45:00,70.0,64.9,29.93,North,-999,0.0,0.0,84,0.00,,,-99.99,WeatherLink 5.7,2013-05-19 07:45:00,
2013-05-19 04:00:00,69.8,65.1,29.93,North,-999,0.0,0.0,85,0.00,,,-99.99,WeatherLink 5.7,2013-05-19 08:00:00,
2013-05-19 04:15:00,69.7,65.0,29.93,North,-999,0.0,0.0,85,0.00,,,-99.99,WeatherLink 5.7,2013-05-19 08:15:00,
2013-05-19 04:30:00,69.4,64.4,29.93,North,-999,0.0,0.0,84,0.00,,,-99.99,WeatherLink 5.7,2013-05-19 08:30:00,
2013-05-19 04:45:00,69.2,64.8,29.93,North,-999,0.0,0.0,86,0.00,,,-99.99,WeatherLink 5.7,2013-05-19 08:45:00,
2013-05-19 05:00:00,69.3,64.9,29.94,North,-999,0.0,0.0,86,0.00,,,-99.99,WeatherLink 5.7,2013-05-19 09:00:00,
2013-05-19 05:15:00,69.0,64.6,29.94,North,-999,0.0,0.0,86,0.00,,,-99.99,WeatherLink 5.7,2013-05-19 09:15:00,
2013-05-19 05:30:00,68.8,64.8,29.94,North,-999,0.0,0.0,87,0.00,,,-99.99,WeatherLink 5.7,2013-05-19 09:30:00,
2013-05-19 05:45:00,68.8,64.8,29.94,North,-999,0.0,0.0,87,0.00,,,-99.99,WeatherLink 5.7,2013-05-19 09:45:00,
2013-05-19 06:00:00,68.6,64.6,29.95,North,-999,0.0,0.0,87,0.00,,,-99.99,WeatherLink 5.7,2013-05-19 10:00:00,
2013-05-19 06:15:00,68.6,64.6,29.96,North,-999,0.0,0.0,87,0.00,,,-99.99,WeatherLink 5.7,2013-05-19 10:15:00,
2013-05-19 06:30:00,68.5,64.5,29.96,North,-999,0.0,0.0,87,0.00,,,-99.99,WeatherLink 5.7,2013-05-19 10:30:00,
2013-05-19 06:45:00,68.3,64.6,29.97,North,-999,0.0,0.0,88,0.00,,,-99.99,WeatherLink 5.7,2013-05-19 10:45:00,
2013-05-19 07:00:00,68.4,64.7,29.97,North,-999,0.0,0.0,88,0.00,,,-99.99,WeatherLink 5.7,2013-05-19 11:00:00,
2013-05-19 07:15:00,68.8,65.4,29.97,North,-999,0.0,0.0,89,0.00,,,-99.99,WeatherLink 5.7,2013-05-19 11:15:00,
2013-05-19 07:30:00,69.3,65.9,29.98,North,-999,0.0,0.0,89,0.00,,,-99.99,WeatherLink 5.7,2013-05-19 11:30:00,
2013-05-19 07:45:00,70.1,67.0,29.98,North,-999,0.0,0.0,90,0.00,,,-99.99,WeatherLink 5.7,2013-05-19 11:45:00,
2013-05-19 08:00:00,71.6,68.5,29.99,North,-999,0.0,0.0,90,0.00,,,-99.99,WeatherLink 5.7,2013-05-19 12:00:00,
2013-05-19 08:15:00,73.1,70.0,29.99,North,-999,0.0,0.0,90,0.00,,,-99.99,WeatherLink 5.7,2013-05-19 12:15:00,
2013-05-19 08:30:00,74.2,71.1,30.00,North,-999,0.0,0.0,90,0.00,,,-99.99,WeatherLink 5.7,2013-05-19 12:30:00,
2013-05-19 08:45:00,75.6,71.5,30.00,North,0,0.0,5.0,87,0.00,,,-99.99,WeatherLink 5.7,2013-05-19 12:45:00,
2013-05-19 09:00:00,77.3,72.1,30.00,North,-999,0.0,0.0,84,0.00,,,-99.99,WeatherLink 5.7,2013-05-19 13:00:00,
2013-05-19 09:15:00,78.8,72.5,30.00,North,-999,0.0,0.0,81,0.00,,,-99.99,WeatherLink 5.7,2013-05-19 13:15:00,
2013-05-19 09:30:00,80.1,72.2,30.00,North,-999,0.0,0.0,77,0.00,,,-99.99,WeatherLink 5.7,2013-05-19 13:30:00,
2013-05-19 09:45:00,81.3,72.6,30.00,North,-999,0.0,0.0,75,0.00,,,-99.99,WeatherLink 5.7,2013-05-19 13:45:00,
2013-05-19 10:00:00,82.6,71.8,30.01,North,-999,0.0,0.0,70,0.00,,,-99.99,WeatherLink 5.7,2013-05-19 14:00:00,
2013-05-19 10:15:00,83.6,71.9,30.00,North,0,0.0,4.0,68,0.00,,,-99.99,WeatherLink 5.7,2013-05-19 14:15:00,
2013-05-19 10:30:00,84.4,70.4,30.01,North,-999,0.0,0.0,63,0.00,,,-99.99,WeatherLink 5.7,2013-05-19 14:30:00,
2013-05-19 10:45:00,85.4,69.4,30.01,North,-999,0.0,0.0,59,0.00,,,-99.99,WeatherLink 5.7,2013-05-19 14:45:00,
2013-05-19 11:00:00,86.3,69.8,30.01,North,0,0.0,3.0,58,0.00,,,-99.99,WeatherLink 5.7,2013-05-19 15:00:00,
2013-05-19 11:15:00,87.3,69.7,30.00,North,0,0.0,7.0,56,0.00,,,-99.99,WeatherLink 5.7,2013-05-19 15:15:00,
2013-05-19 11:30:00,88.0,70.3,30.00,North,0,0.0,7.0,56,0.00,,,-99.99,WeatherLink 5.7,2013-05-19 15:30:00,
2013-05-19 11:45:00,88.5,69.2,30.00,North,0,0.0,5.0,53,0.00,,,-99.99,WeatherLink 5.7,2013-05-19 15:45:00,
2013-05-19 12:00:00,89.3,68.8,30.00,North,0,0.0,4.0,51,0.00,,,-99.99,WeatherLink 5.7,2013-05-19 16:00:00,
2013-05-19 12:15:00,89.9,69.3,30.00,North,0,0.0,7.0,51,0.00,,,-99.99,WeatherLink 5.7,2013-05-19 16:15:00,
2013-05-19 12:30:00,89.8,67.5,29.99,North,0,1.0,7.0,48,0.00,,,-99.99,WeatherLink 5.7,2013-05-19 16:30:00,
2013-05-19 12:45:00,89.6,67.9,29.99,North,0,0.0,6.0,49,0.00,,,-99.99,WeatherLink 5.7,2013-05-19 16:45:00,
2013-05-19 13:00:00,89.7,67.4,29.97,North,0,0.0,3.0,48,0.00,,,-99.99,WeatherLink 5.7,2013-05-19 17:00:00,
2013-05-19 13:15:00,90.2,67.2,29.97,North,0,0.0,9.0,47,0.00,,,-99.99,WeatherLink 5.7,2013-05-19 17:15:00,
2013-05-19 13:30:00,90.5,67.5,29.96,North,0,0.0,3.0,47,0.00,,,-99.99,WeatherLink 5.7,2013-05-19 17:30:00,
2013-05-19 13:45:00,90.8,67.2,29.96,North,0,0.0,5.0,46,0.00,,,-99.99,WeatherLink 5.7,2013-05-19 17:45:00,
2013-05-19 14:00:00,90.6,67.6,29.96,North,0,1.0,7.0,47,0.00,,,-99.99,WeatherLink 5.7,2013-05-19 18:00:00,
2013-05-19 14:15:00,90.4,66.8,29.95,North,0,0.0,4.0,46,0.00,,,-99.99,WeatherLink 5.7,2013-05-19 18:15:00,
2013-05-19 14:30:00,91.1,66.8,29.95,North,0,0.0,1.0,45,0.00,,,-99.99,WeatherLink 5.7,2013-05-19 18:30:00,
2013-05-19 14:45:00,91.1,67.4,29.95,North,0,0.0,6.0,46,0.00,,,-99.99,WeatherLink 5.7,2013-05-19 18:45:00,
2013-05-19 15:00:00,90.3,67.3,29.95,North,0,0.0,6.0,47,0.00,,,-99.99,WeatherLink 5.7,2013-05-19 19:00:00,
2013-05-19 15:15:00,89.9,67.0,29.94,North,0,2.0,11.0,47,0.00,,,-99.99,WeatherLink 5.7,2013-05-19 19:15:00,
2013-05-19 15:30:00,89.1,66.2,29.94,North,0,0.0,6.0,47,0.00,,,-99.99,WeatherLink 5.7,2013-05-19 19:30:00,
2013-05-19 15:45:00,88.4,66.8,29.93,North,0,1.0,7.0,49,0.00,,,-99.99,WeatherLink 5.7,2013-05-19 19:45:00,
2013-05-19 16:00:00,87.8,65.7,29.92,North,0,0.0,7.0,48,0.00,,,-99.99,WeatherLink 5.7,2013-05-19 20:00:00,
2013-05-19 16:15:00,87.9,66.9,29.92,North,0,1.0,9.0,50,0.00,,,-99.99,WeatherLink 5.7,2013-05-19 20:15:00,
2013-05-19 16:30:00,88.3,66.1,29.91,North,0,1.0,7.0,48,0.00,,,-99.99,WeatherLink 5.7,2013-05-19 20:30:00,
2013-05-19 16:45:00,88.4,66.2,29.91,North,0,0.0,2.0,48,0.00,,,-99.99,WeatherLink 5.7,2013-05-19 20:45:00,
2013-05-19 17:00:00,88.2,66.0,29.91,North,0,0.0,6.0,48,0.00,,,-99.99,WeatherLink 5.7,2013-05-19 21:00:00,
2013-05-19 17:15:00,88.7,65.9,29.91,North,0,0.0,4.0,47,0.00,,,-99.99,WeatherLink 5.7,2013-05-19 21:15:00,
2013-05-19 17:30:00,89.4,65.3,29.91,North,0,0.0,5.0,45,0.00,,,-99.99,WeatherLink 5.7,2013-05-19 21:30:00,
2013-05-19 17:45:00,89.4,65.3,29.92,North,0,0.0,6.0,45,0.00,,,-99.99,WeatherLink 5.7,2013-05-19 21:45:00,
2013-05-19 18:00:00,88.6,65.8,29.92,North,0,1.0,9.0,47,0.00,,,-99.99,WeatherLink 5.7,2013-05-19 22:00:00,
2013-05-19 18:15:00,86.4,65.6,29.92,North,0,1.0,9.0,50,0.00,,,-99.99,WeatherLink 5.7,2013-05-19 22:15:00,
2013-05-19 18:30:00,84.8,65.8,29.92,North,0,1.0,7.0,53,0.00,,,-99.99,WeatherLink 5.7,2013-05-19 22:30:00,
2013-05-19 18:45:00,83.7,65.8,29.92,North,0,1.0,8.0,55,0.00,,,-99.99,WeatherLink 5.7,2013-05-19 22:45:00,
2013-05-19 19:00:00,82.5,65.7,29.93,North,0,2.0,9.0,57,0.00,,,-99.99,WeatherLink 5.7,2013-05-19 23:00:00,
2013-05-19 19:15:00,81.6,65.4,29.93,North,0,0.0,6.0,58,0.00,,,-99.99,WeatherLink 5.7,2013-05-19 23:15:00,
2013-05-19 19:30:00,81.0,65.3,29.92,North,0,0.0,5.0,59,0.00,,,-99.99,WeatherLink 5.7,2013-05-19 23:30:00,
2013-05-19 19:45:00,80.4,65.2,29.92,North,0,0.0,6.0,60,0.00,,,-99.99,WeatherLink 5.7,2013-05-19 23:45:00,
2013-05-19 20:00:00,79.7,64.6,29.93,North,-999,0.0,0.0,60,0.00,,,-99.99,WeatherLink 5.7,2013-05-20 00:00:00,
2013-05-19 20:15:00,79.1,64.5,29.94,North,-999,0.0,0.0,61,0.00,,,-99.99,WeatherLink 5.7,2013-05-20 00:15:00,
2013-05-19 20:30:00,78.5,64.4,29.94,North,-999,0.0,0.0,62,0.00,,,-99.99,WeatherLink 5.7,2013-05-20 00:30:00,
2013-05-19 20:45:00,77.9,64.7,29.94,North,-999,0.0,0.0,64,0.00,,,-99.99,WeatherLink 5.7,2013-05-20 00:45:00,
2013-05-19 21:00:00,77.6,64.9,29.95,North,-999,0.0,0.0,65,0.00,,,-99.99,WeatherLink 5.7,2013-05-20 01:00:00,
2013-05-19 21:15:00,77.1,64.4,29.96,North,-999,0.0,0.0,65,0.00,,,-99.99,WeatherLink 5.7,2013-05-20 01:15:00,
2013-05-19 21:30:00,76.7,64.5,29.96,North,-999,0.0,0.0,66,0.00,,,-99.99,WeatherLink 5.7,2013-05-20 01:30:00,
2013-05-19 22:00:00,76.0,64.7,29.98,North,-999,0.0,0.0,68,0.00,,,-99.99,WeatherLink 5.7,2013-05-20 02:00:00,
2013-05-19 22:09:00,76.3,64.5,29.97,North,-999,0.0,0.0,67,0.00,,,-99.99,WeatherLink 5.7,2013-05-20 02:09:00,
2013-05-19 22:30:00,75.6,65.1,29.98,North,-999,0.0,0.0,70,0.00,,,-99.99,WeatherLink 5.7,2013-05-20 02:30:00,
2013-05-19 22:39:00,75.8,64.5,29.98,North,-999,0.0,0.0,68,0.00,,,-99.99,WeatherLink 5.7,2013-05-20 02:39:00,
2013-05-19 22:45:00,75.4,64.5,29.98,North,-999,0.0,0.0,69,0.00,,,-99.99,WeatherLink 5.7,2013-05-20 02:45:00,
2013-05-19 23:00:00,75.3,64.8,29.99,North,-999,0.0,0.0,70,0.00,,,-99.99,WeatherLink 5.7,2013-05-20 03:00:00,
2013-05-19 23:15:00,75.3,64.8,29.99,North,-999,0.0,0.0,70,0.00,,,-99.99,WeatherLink 5.7,2013-05-20 03:15:00,
2013-05-19 23:30:00,75.3,65.2,29.99,North,-999,0.0,0.0,71,0.00,,,-99.99,WeatherLink 5.7,2013-05-20 03:30:00,
2013-05-19 23:45:00,75.1,65.1,29.98,North,-999,0.0,0.0,71,0.00,,,-99.99,WeatherLink 5.7,2013-05-20 03:45:00,